Time;durP1;ratioP1;P1;durP2;ratioP2;P2;SDS_P1;SDS_P2;PMS_P1;PMS_P2;Temp;Humidity;BMP_temperature;BMP_pressure;BME280_temperature;BME280_humidity;BME280_pressure;Samples;Min_cycle;Max_cycle;Signal;HPM_P1;HPM_P2
2022/12/12 00:01:26;;;;;;;32.40;20.60;;;-0.90;99.90;;;;;;5071724;28;20527;-60
2022/12/12 00:03:55;;;;;;;32.87;20.27;;;-0.70;99.90;;;;;;5073638;28;20465;-60
2022/12/12 00:06:24;;;;;;;31.90;19.90;;;-0.80;99.90;;;;;;5072286;28;20476;-60
2022/12/12 00:08:52;;;;;;;33.47;19.57;;;-0.80;99.90;;;;;;5074128;28;21025;-60
2022/12/12 00:11:21;;;;;;;37.87;21.50;;;-0.80;99.90;;;;;;5076414;28;20461;-60
2022/12/12 00:13:51;;;;;;;31.93;20.63;;;-0.80;99.90;;;;;;5075789;28;20466;-60
2022/12/12 00:16:20;;;;;;;33.30;20.30;;;-0.90;99.90;;;;;;5076118;28;20473;-60
2022/12/12 00:18:48;;;;;;;37.87;22.33;;;-0.90;99.90;;;;;;5075669;28;20564;-60
2022/12/12 00:21:18;;;;;;;38.33;21.43;;;-1.00;99.90;;;;;;5075847;28;20485;-60
2022/12/12 00:23:47;;;;;;;33.07;20.30;;;-1.10;99.90;;;;;;5075443;28;20820;-60
2022/12/12 00:26:19;;;;;;;40.23;22.77;;;-1.20;99.90;;;;;;5075811;28;20821;-60
2022/12/12 00:28:47;;;;;;;38.03;21.83;;;-1.30;99.90;;;;;;5075292;28;20453;-60
2022/12/12 00:31:17;;;;;;;32.03;19.50;;;-1.30;99.90;;;;;;5075176;28;20470;-60
2022/12/12 00:33:48;;;;;;;34.93;21.77;;;-1.00;99.90;;;;;;5076797;28;20660;-59
2022/12/12 00:36:18;;;;;;;32.67;19.47;;;-1.10;99.90;;;;;;5075121;28;20473;-60
2022/12/12 00:38:47;;;;;;;31.90;19.33;;;-0.90;99.90;;;;;;5075202;28;20481;-60
2022/12/12 00:41:15;;;;;;;33.47;19.47;;;-0.90;99.90;;;;;;5075136;28;20481;-60
2022/12/12 00:43:43;;;;;;;35.73;22.27;;;-0.70;99.90;;;;;;5075095;28;20456;-60
2022/12/12 00:46:15;;;;;;;31.20;19.57;;;-0.90;99.90;;;;;;5075403;28;20466;-60
2022/12/12 00:48:44;;;;;;;37.40;21.83;;;-0.80;99.90;;;;;;5075315;28;20875;-60
2022/12/12 00:51:19;;;;;;;33.00;20.60;;;-1.00;99.90;;;;;;5074971;28;20470;-60
2022/12/12 00:53:48;;;;;;;33.37;20.17;;;-1.10;99.90;;;;;;5074801;28;20906;-60
2022/12/12 00:56:17;;;;;;;36.00;22.00;;;-1.10;99.90;;;;;;5074975;28;20480;-60
2022/12/12 00:58:45;;;;;;;32.07;19.13;;;-1.20;99.90;;;;;;5075262;28;20465;-60
2022/12/12 01:01:16;;;;;;;30.17;19.03;;;-1.00;99.90;;;;;;5074591;28;21000;-60
2022/12/12 01:03:46;;;;;;;34.23;20.40;;;-1.00;99.90;;;;;;5076531;28;20473;-59
2022/12/12 01:06:14;;;;;;;34.40;20.53;;;-1.10;99.90;;;;;;5074974;28;20817;-59
2022/12/12 01:08:43;;;;;;;37.13;21.00;;;-1.10;99.90;;;;;;5074780;28;20516;-60
2022/12/12 01:11:11;;;;;;;31.33;19.73;;;-1.00;99.90;;;;;;5074744;28;20453;-60
2022/12/12 01:13:40;;;;;;;35.30;21.17;;;-0.90;99.90;;;;;;5074778;28;20607;-60
2022/12/12 01:16:08;;;;;;;36.13;21.67;;;-0.90;99.90;;;;;;5075073;28;20477;-60
2022/12/12 01:18:37;;;;;;;38.90;22.53;;;-0.90;99.90;;;;;;5074329;28;20504;-60
2022/12/12 01:21:09;;;;;;;39.67;23.73;;;-0.90;99.90;;;;;;5074019;28;20461;-60
2022/12/12 01:23:39;;;;;;;40.63;24.33;;;-0.80;99.90;;;;;;5074720;28;20490;-60
2022/12/12 01:26:11;;;;;;;40.23;23.93;;;-0.90;99.90;;;;;;5074635;28;20469;-60
2022/12/12 01:28:39;;;;;;;43.43;25.20;;;-1.00;99.90;;;;;;5074163;28;20515;-60
2022/12/12 01:31:08;;;;;;;41.90;24.30;;;-1.10;99.90;;;;;;5074186;28;20470;-60
2022/12/12 01:33:36;;;;;;;48.47;26.37;;;-1.10;99.90;;;;;;5075895;28;20464;-60
2022/12/12 01:36:05;;;;;;;37.30;22.90;;;-1.30;99.90;;;;;;5074140;28;20473;-60
2022/12/12 01:38:34;;;;;;;41.80;24.63;;;-1.20;99.90;;;;;;5073577;28;20468;-60
2022/12/12 01:41:02;;;;;;;39.40;22.63;;;-1.40;99.90;;;;;;5074423;28;20466;-60
2022/12/12 01:43:30;;;;;;;40.23;22.50;;;-1.40;99.90;;;;;;5073919;28;20464;-60
2022/12/12 01:46:34;;;;;;;45.03;24.47;;;-1.30;99.90;;;;;;5074497;28;20477;-60
2022/12/12 01:49:09;;;;;;;43.13;24.67;;;-1.20;99.90;;;;;;5074232;28;20475;-60
2022/12/12 01:51:39;;;;;;;36.50;22.23;;;-1.30;99.90;;;;;;5073873;28;20457;-60
2022/12/12 01:54:14;;;;;;;49.30;26.13;;;-1.20;99.90;;;;;;5074201;28;20519;-60
2022/12/12 01:56:44;;;;;;;46.97;26.23;;;-1.40;99.90;;;;;;5073705;28;20532;-60
2022/12/12 01:59:15;;;;;;;44.07;24.83;;;-1.60;99.90;;;;;;5073774;28;20465;-59
2022/12/12 02:01:44;;;;;;;45.93;24.20;;;-1.50;99.90;;;;;;5072892;28;20496;-60
2022/12/12 02:04:14;;;;;;;45.57;24.17;;;-1.30;99.90;;;;;;5069152;28;21037;-59
2022/12/12 02:06:43;;;;;;;48.53;25.03;;;-1.40;99.90;;;;;;5073422;28;20465;-60
2022/12/12 02:09:15;;;;;;;39.33;22.30;;;-1.50;99.90;;;;;;5073964;28;20802;-59
2022/12/12 02:11:46;;;;;;;43.20;23.73;;;-1.40;99.90;;;;;;5073322;28;20464;-60
2022/12/12 02:14:18;;;;;;;36.27;20.83;;;-1.60;99.90;;;;;;5073392;28;20453;-59
2022/12/12 02:17:19;;;;;;;42.13;24.37;;;-1.50;99.90;;;;;;5073460;28;20965;-59
2022/12/12 02:20:22;;;;;;;38.20;21.90;;;-1.60;99.90;;;;;;5070020;28;20535;-60
2022/12/12 02:23:13;;;;;;;41.40;21.77;;;-1.80;99.90;;;;;;5073346;28;20535;-60
2022/12/12 02:26:10;;;;;;;35.47;19.83;;;-1.80;99.90;;;;;;5072971;28;20462;-59
2022/12/12 02:29:24;;;;;;;38.60;21.83;;;-1.70;99.90;;;;;;5068923;28;20470;-58
2022/12/12 02:32:02;;;;;;;37.23;22.10;;;-1.70;99.90;;;;;;5047422;28;20461;-60
2022/12/12 02:34:34;;;;;;;33.13;19.50;;;-1.70;99.90;;;;;;5074642;28;20465;-59
2022/12/12 02:37:09;;;;;;;38.67;20.93;;;-1.80;99.90;;;;;;5073427;28;20477;-60
2022/12/12 02:39:43;;;;;;;41.27;22.17;;;-1.80;99.90;;;;;;5073344;28;20468;-60
2022/12/12 02:42:21;;;;;;;36.53;21.13;;;-1.90;99.90;;;;;;5073244;28;20887;-59
2022/12/12 02:44:56;;;;;;;40.70;22.40;;;-1.90;99.90;;;;;;5053094;28;20466;-59
2022/12/12 02:47:31;;;;;;;36.60;20.20;;;-1.90;99.90;;;;;;5053325;28;20476;-60
2022/12/12 02:50:03;;;;;;;38.93;21.07;;;-2.00;99.90;;;;;;5053542;28;20476;-60
2022/12/12 02:52:32;;;;;;;32.47;19.87;;;-2.00;99.90;;;;;;5053009;28;20532;-59
2022/12/12 02:55:01;;;;;;;35.77;21.57;;;-2.00;99.90;;;;;;5058019;28;20477;-60
2022/12/12 02:57:29;;;;;;;31.17;18.27;;;-1.80;99.90;;;;;;5072821;28;20507;-59
2022/12/12 02:59:59;;;;;;;33.23;20.90;;;-1.80;99.90;;;;;;5073179;28;20453;-60
2022/12/12 03:09:07;;;;;;;31.57;18.70;;;-2.10;99.90;;;;;;5072715;28;20476;-59
2022/12/12 03:11:49;;;;;;;35.60;20.60;;;-1.90;99.90;;;;;;5072859;28;20871;-60
2022/12/12 03:14:24;;;;;;;33.77;18.93;;;-2.10;99.90;;;;;;5072961;28;20469;-59
2022/12/12 03:17:02;;;;;;;33.27;19.63;;;-2.00;99.90;;;;;;5072903;28;20468;-59
2022/12/12 03:19:42;;;;;;;29.20;18.53;;;-2.10;99.90;;;;;;5072769;28;20476;-59
2022/12/12 03:22:14;;;;;;;36.17;19.63;;;-2.10;99.90;;;;;;5072632;28;20477;-60
2022/12/12 03:24:47;;;;;;;30.93;17.17;;;-2.10;99.90;;;;;;5073092;28;20473;-60
2022/12/12 03:27:21;;;;;;;30.03;17.30;;;-2.00;99.90;;;;;;5065314;28;20496;-59
2022/12/12 03:29:55;;;;;;;26.30;15.17;;;-2.00;99.90;;;;;;5073103;28;20502;-59
2022/12/12 03:32:26;;;;;;;28.00;16.73;;;-1.90;99.90;;;;;;5068825;28;20476;-60
2022/12/12 03:35:00;;;;;;;34.13;19.27;;;-1.70;99.90;;;;;;5073398;28;20502;-59
2022/12/12 03:37:31;;;;;;;34.60;19.37;;;-1.80;99.90;;;;;;5071441;28;20519;-59
2022/12/12 03:40:05;;;;;;;31.87;17.90;;;-1.90;99.90;;;;;;5073228;28;20651;-60
2022/12/12 03:42:39;;;;;;;31.93;18.10;;;-1.70;99.90;;;;;;5073157;28;20478;-59
2022/12/12 03:45:13;;;;;;;27.23;16.20;;;-1.90;99.90;;;;;;5077116;28;20464;-60
2022/12/12 03:47:49;;;;;;;25.83;16.03;;;-1.80;99.90;;;;;;5076820;28;20465;-59
2022/12/12 03:50:20;;;;;;;29.93;17.37;;;-1.50;99.90;;;;;;5076716;28;20523;-59
2022/12/12 03:52:54;;;;;;;34.23;19.60;;;-1.50;99.90;;;;;;5076357;28;21049;-60
2022/12/12 03:55:27;;;;;;;30.17;17.43;;;-1.70;99.90;;;;;;5076675;28;20453;-60
2022/12/12 03:58:00;;;;;;;32.63;16.27;;;-1.80;99.90;;;;;;5076313;28;20515;-60
2022/12/12 04:00:32;;;;;;;31.60;18.07;;;-1.70;99.90;;;;;;5075747;28;20465;-59
2022/12/12 04:03:10;;;;;;;35.67;19.67;;;-1.80;99.90;;;;;;5077525;28;20546;-60
2022/12/12 04:08:30;;;;;;;32.83;18.87;;;-1.50;99.90;;;;;;5075687;28;20473;-59
2022/12/12 04:14:02;;;;;;;38.33;21.40;;;-1.30;99.90;;;;;;5076230;28;20532;-59
2022/12/12 04:16:37;;;;;;;32.33;18.37;;;-1.30;99.90;;;;;;5075751;28;20523;-59
2022/12/12 04:19:12;;;;;;;35.73;18.97;;;-1.20;99.90;;;;;;5075958;28;20511;-60
2022/12/12 04:24:38;;;;;;;31.23;18.83;;;-1.40;99.90;;;;;;5075384;28;20535;-59
2022/12/12 04:27:13;;;;;;;35.40;18.03;;;-1.40;99.90;;;;;;5075884;28;20461;-60
2022/12/12 04:29:48;;;;;;;36.27;20.17;;;-1.10;99.90;;;;;;5075511;28;21011;-59
2022/12/12 04:32:21;;;;;;;42.67;26.53;;;-1.10;99.90;;;;;;5073769;28;20535;-60
2022/12/12 04:34:53;;;;;;;38.73;21.40;;;-1.10;99.90;;;;;;5076951;28;20488;-60
2022/12/12 04:37:25;;;;;;;35.77;20.03;;;-1.20;99.90;;;;;;5075448;28;21002;-60
2022/12/12 04:39:57;;;;;;;36.47;20.27;;;-1.10;99.90;;;;;;5075331;28;20526;-60
2022/12/12 04:42:28;;;;;;;32.87;18.47;;;-1.20;99.90;;;;;;5075555;28;20972;-60
2022/12/12 04:45:03;;;;;;;40.63;22.17;;;-1.20;99.90;;;;;;5075578;28;20491;-59
2022/12/12 04:47:33;;;;;;;38.67;21.50;;;-1.40;99.90;;;;;;5075298;28;20484;-60
2022/12/12 04:50:02;;;;;;;32.80;18.13;;;-1.60;99.90;;;;;;5075631;28;20473;-59
2022/12/12 04:52:34;;;;;;;35.93;18.77;;;-1.30;99.90;;;;;;5075408;28;20575;-59
2022/12/12 04:55:08;;;;;;;33.73;19.57;;;-1.20;99.90;;;;;;5074364;28;20530;-59
2022/12/12 04:57:41;;;;;;;32.87;17.57;;;-1.20;99.90;;;;;;5075404;28;20820;-59
2022/12/12 05:00:12;;;;;;;32.47;19.13;;;-1.20;99.90;;;;;;5074625;28;20472;-60
2022/12/12 05:02:46;;;;;;;38.17;20.13;;;-1.20;99.90;;;;;;5075767;28;20822;-59
2022/12/12 05:05:19;;;;;;;34.37;19.07;;;-1.10;99.90;;;;;;5074071;28;20461;-60
2022/12/12 05:07:54;;;;;;;43.40;22.63;;;-1.20;99.90;;;;;;5074856;28;20481;-60
2022/12/12 05:10:22;;;;;;;42.93;21.10;;;-1.50;99.90;;;;;;5075285;28;20522;-59
2022/12/12 05:12:52;;;;;;;37.70;19.97;;;-1.70;99.90;;;;;;5075389;28;20518;-60
2022/12/12 05:15:20;;;;;;;32.23;17.20;;;-1.60;99.90;;;;;;5075574;28;20557;-60
2022/12/12 05:17:53;;;;;;;35.50;19.80;;;-1.50;99.90;;;;;;5074981;28;20476;-60
2022/12/12 05:20:21;;;;;;;33.93;18.87;;;-1.40;99.90;;;;;;5074847;28;20472;-59
2022/12/12 05:22:51;;;;;;;31.57;17.30;;;-1.40;99.90;;;;;;5075099;28;20475;-59
2022/12/12 05:25:19;;;;;;;35.60;19.00;;;-1.40;99.90;;;;;;5074721;28;20454;-59
2022/12/12 05:27:48;;;;;;;35.07;17.97;;;-1.40;99.90;;;;;;5074746;28;20469;-59
2022/12/12 05:30:17;;;;;;;35.50;18.93;;;-1.40;99.90;;;;;;5073833;28;20470;-59
2022/12/12 05:32:45;;;;;;;35.87;18.43;;;-1.60;99.90;;;;;;5075797;28;20461;-59
2022/12/12 05:35:13;;;;;;;38.77;20.63;;;-1.60;99.90;;;;;;5073937;28;20465;-59
2022/12/12 05:37:42;;;;;;;35.37;21.07;;;-1.60;99.90;;;;;;5074585;28;20457;-59
2022/12/12 05:40:21;;;;;;;40.80;22.20;;;-1.80;99.90;;;;;;5074313;28;20465;-59
2022/12/12 05:42:49;;;;;;;40.63;22.17;;;-1.90;99.90;;;;;;5074309;28;20519;-59
2022/12/12 05:45:17;;;;;;;37.10;19.47;;;-2.00;99.90;;;;;;5074048;28;20485;-59
2022/12/12 05:47:45;;;;;;;33.77;18.10;;;-2.00;99.90;;;;;;5074187;28;20484;-59
2022/12/12 05:50:13;;;;;;;33.37;17.33;;;-1.70;99.90;;;;;;5074054;28;20481;-59
2022/12/12 05:52:41;;;;;;;38.20;20.97;;;-1.60;99.90;;;;;;5073865;28;20469;-59
2022/12/12 05:55:09;;;;;;;35.70;19.27;;;-1.80;99.90;;;;;;5074176;28;20469;-60
2022/12/12 05:57:40;;;;;;;28.53;16.10;;;-2.00;99.90;;;;;;5073796;28;20530;-59
2022/12/12 06:00:10;;;;;;;33.43;18.27;;;-1.80;99.90;;;;;;5073643;28;20981;-59
2022/12/12 06:02:39;;;;;;;39.50;18.03;;;-1.80;99.90;;;;;;5073899;28;20461;-60
2022/12/12 06:05:08;;;;;;;32.60;17.80;;;-1.80;99.90;;;;;;5073871;28;20474;-59
2022/12/12 06:07:36;;;;;;;32.10;17.20;;;-1.80;99.90;;;;;;5073422;28;20457;-59
2022/12/12 06:10:06;;;;;;;37.37;18.67;;;-1.90;99.90;;;;;;5073311;28;20473;-59
2022/12/12 06:12:34;;;;;;;38.83;19.63;;;-1.90;99.90;;;;;;5073337;28;20944;-59
2022/12/12 06:15:03;;;;;;;42.27;19.47;;;-2.10;99.90;;;;;;5073712;28;20478;-59
2022/12/12 06:17:31;;;;;;;35.07;17.80;;;-2.20;99.90;;;;;;5072975;28;20586;-59
2022/12/12 06:20:00;;;;;;;31.80;16.23;;;-1.70;99.90;;;;;;5072864;28;20553;-59
2022/12/12 06:22:28;;;;;;;36.80;18.43;;;-1.70;99.90;;;;;;5070969;28;20870;-59
2022/12/12 06:24:56;;;;;;;41.43;20.83;;;-1.60;99.90;;;;;;5082999;28;20980;-59
2022/12/12 06:27:25;;;;;;;39.50;20.27;;;-1.90;99.90;;;;;;5088156;28;20453;-59
2022/12/12 06:29:55;;;;;;;37.50;19.60;;;-2.10;99.90;;;;;;5086522;28;20959;-59
2022/12/12 06:32:24;;;;;;;33.63;18.43;;;-2.20;99.90;;;;;;5084902;28;20484;-60
2022/12/12 06:34:52;;;;;;;36.90;19.30;;;-1.80;99.90;;;;;;5079422;28;20465;-59
2022/12/12 06:37:20;;;;;;;36.17;17.80;;;-1.90;99.90;;;;;;5079075;28;20466;-59
2022/12/12 06:39:48;;;;;;;37.23;18.73;;;-1.90;99.90;;;;;;5085658;28;20479;-57
2022/12/12 06:42:16;;;;;;;36.30;18.10;;;-1.80;99.90;;;;;;5084114;28;20469;-59
2022/12/12 06:44:45;;;;;;;38.43;18.03;;;-1.90;99.90;;;;;;5078238;28;20942;-59
2022/12/12 06:47:13;;;;;;;36.33;19.93;;;-1.80;99.90;;;;;;5074168;28;20461;-59
2022/12/12 06:49:42;;;;;;;38.83;20.27;;;-1.90;99.90;;;;;;5088825;28;20468;-59
2022/12/12 06:52:10;;;;;;;40.10;20.60;;;-2.10;99.90;;;;;;5076997;28;20473;-59
2022/12/12 06:54:38;;;;;;;37.50;19.00;;;-2.30;99.90;;;;;;5079623;28;20465;-59
2022/12/12 06:57:06;;;;;;;35.47;16.93;;;-2.20;99.90;;;;;;5072204;28;20462;-59
2022/12/12 06:59:34;;;;;;;36.60;18.83;;;-1.90;99.90;;;;;;5072191;28;20953;-60
2022/12/12 07:02:02;;;;;;;38.10;19.67;;;-1.90;99.90;;;;;;5072200;28;20477;-59
2022/12/12 07:04:30;;;;;;;43.20;22.23;;;-1.80;99.90;;;;;;5072864;28;20488;-59
2022/12/12 07:07:00;;;;;;;38.10;21.23;;;-2.10;99.90;;;;;;5072895;28;20468;-59
2022/12/12 07:09:28;;;;;;;39.03;20.03;;;-2.30;99.90;;;;;;5072819;28;20469;-59
2022/12/12 07:11:56;;;;;;;38.40;20.27;;;-2.50;99.90;;;;;;5072607;28;20461;-59
2022/12/12 07:14:24;;;;;;;35.13;19.83;;;-2.60;99.90;;;;;;5072559;28;20453;-58
2022/12/12 07:16:52;;;;;;;35.73;18.93;;;-2.60;99.90;;;;;;5072713;28;20842;-59
2022/12/12 07:19:21;;;;;;;35.13;18.93;;;-2.60;99.90;;;;;;5072599;28;20964;-59
2022/12/12 07:21:49;;;;;;;39.73;20.80;;;-2.60;99.90;;;;;;5072407;28;20504;-59
2022/12/12 07:24:18;;;;;;;38.23;19.87;;;-2.70;99.90;;;;;;5072505;28;20980;-59
2022/12/12 07:26:46;;;;;;;42.30;22.70;;;-2.50;99.90;;;;;;5072625;28;20466;-59
2022/12/12 07:29:15;;;;;;;39.60;23.07;;;-2.50;99.90;;;;;;5072413;28;20473;-59
2022/12/12 07:31:43;;;;;;;40.00;22.50;;;-2.70;99.90;;;;;;5070203;28;20492;-59
2022/12/12 07:34:11;;;;;;;41.70;22.03;;;-2.70;99.90;;;;;;5073391;28;21024;-59
2022/12/12 07:36:39;;;;;;;35.77;20.00;;;-2.70;99.90;;;;;;5077095;28;20514;-58
2022/12/12 07:39:08;;;;;;;38.90;19.77;;;-2.60;99.90;;;;;;5084889;28;20518;-59
2022/12/12 07:41:38;;;;;;;38.80;21.63;;;-2.50;99.90;;;;;;5075656;28;20472;-59
2022/12/12 07:44:08;;;;;;;40.03;22.63;;;-2.60;99.90;;;;;;5080385;28;20495;-59
2022/12/12 07:46:36;;;;;;;37.90;19.20;;;-2.60;99.90;;;;;;5074600;28;20473;-59
2022/12/12 07:49:05;;;;;;;39.57;21.00;;;-2.50;99.90;;;;;;5078645;28;20997;-59
2022/12/12 07:51:33;;;;;;;44.43;22.27;;;-2.60;99.90;;;;;;5076918;28;20468;-59
2022/12/12 07:54:01;;;;;;;37.77;21.07;;;-2.50;99.90;;;;;;5079170;28;20488;-59
2022/12/12 07:56:29;;;;;;;42.20;22.50;;;-2.60;99.90;;;;;;5080706;28;20484;-59
2022/12/12 07:58:58;;;;;;;34.73;19.93;;;-2.50;99.90;;;;;;5081132;28;20473;-58
2022/12/12 08:01:28;;;;;;;35.97;19.13;;;-2.50;99.90;;;;;;5079204;28;20484;-58
2022/12/12 08:03:56;;;;;;;41.63;21.17;;;-2.50;99.90;;;;;;5077564;28;20992;-59
2022/12/12 08:06:24;;;;;;;38.73;20.83;;;-2.50;99.90;;;;;;5079663;28;20890;-58
2022/12/12 08:08:53;;;;;;;39.50;19.53;;;-2.60;99.90;;;;;;5075058;28;20477;-62
2022/12/12 08:11:23;;;;;;;56.73;21.40;;;-2.50;99.90;;;;;;5079176;28;20460;-60
2022/12/12 08:13:52;;;;;;;46.20;21.47;;;-2.50;99.90;;;;;;5077570;28;20525;-60
2022/12/12 08:16:23;;;;;;;41.53;21.20;;;-2.40;99.90;;;;;;5082324;28;20468;-60
2022/12/12 08:18:53;;;;;;;44.67;22.73;;;-2.30;99.90;;;;;;5076175;28;20469;-60
2022/12/12 08:21:22;;;;;;;38.17;18.40;;;-2.40;99.90;;;;;;5072603;28;20967;-59
2022/12/12 08:23:56;;;;;;;36.27;19.50;;;-2.30;99.90;;;;;;5078000;28;20465;-58
2022/12/12 08:26:25;;;;;;;41.57;21.50;;;-2.20;99.90;;;;;;5080544;28;20844;-59
2022/12/12 08:28:54;;;;;;;37.07;19.13;;;-2.20;99.90;;;;;;5082616;28;20468;-60
2022/12/12 08:31:23;;;;;;;35.37;17.83;;;-2.30;99.90;;;;;;5083596;28;20845;-60
2022/12/12 08:33:52;;;;;;;41.67;21.73;;;-2.10;99.90;;;;;;5078764;28;20456;-60
2022/12/12 08:36:22;;;;;;;43.17;21.40;;;-2.10;99.90;;;;;;5087963;28;21144;-60
2022/12/12 08:38:50;;;;;;;36.77;19.97;;;-2.20;99.90;;;;;;5078254;28;20515;-60
2022/12/12 08:41:19;;;;;;;39.17;21.03;;;-2.30;99.90;;;;;;5082086;28;20821;-60
2022/12/12 08:43:49;;;;;;;34.37;18.90;;;-2.20;99.90;;;;;;5077966;28;20499;-60
2022/12/12 08:46:19;;;;;;;36.83;19.30;;;-2.10;99.90;;;;;;5078505;28;21105;-60
2022/12/12 08:48:49;;;;;;;37.73;19.63;;;-2.00;99.90;;;;;;5084361;28;20476;-60
2022/12/12 08:51:18;;;;;;;41.17;21.47;;;-1.80;99.90;;;;;;5079178;28;20472;-60
2022/12/12 08:53:47;;;;;;;44.10;24.03;;;-1.60;99.90;;;;;;5074629;28;20485;-59
2022/12/12 08:56:17;;;;;;;39.57;22.87;;;-1.80;99.90;;;;;;5077153;28;20476;-60
2022/12/12 08:58:45;;;;;;;38.80;20.90;;;-1.90;99.90;;;;;;5081724;28;20476;-60
2022/12/12 09:01:16;;;;;;;45.50;20.73;;;-1.80;99.90;;;;;;5081640;28;20493;-61
2022/12/12 09:03:44;;;;;;;39.77;22.17;;;-1.80;99.90;;;;;;5083142;28;20468;-60
2022/12/12 09:06:14;;;;;;;42.90;23.43;;;-1.80;99.90;;;;;;5073499;28;20888;-60
2022/12/12 09:08:43;;;;;;;46.47;23.67;;;-1.80;99.90;;;;;;5080003;28;21022;-60
2022/12/12 09:11:11;;;;;;;50.00;26.27;;;-1.60;99.90;;;;;;5084181;28;20469;-60
2022/12/12 09:13:40;;;;;;;50.37;26.37;;;-1.50;99.90;;;;;;5089675;28;20955;-60
2022/12/12 09:16:09;;;;;;;50.97;26.90;;;-1.40;99.90;;;;;;5084302;28;20464;-60
2022/12/12 09:18:38;;;;;;;49.93;27.47;;;-1.50;99.90;;;;;;5079317;28;20473;-61
2022/12/12 09:21:16;;;;;;;53.50;27.60;;;-1.40;99.90;;;;;;5079103;28;20476;-60
2022/12/12 09:23:45;;;;;;;62.73;30.70;;;-1.30;99.90;;;;;;5080093;28;20464;-60
2022/12/12 09:26:13;;;;;;;48.23;25.50;;;-1.10;99.90;;;;;;5085331;28;20472;-60
2022/12/12 09:28:41;;;;;;;56.13;28.87;;;-1.10;99.90;;;;;;5073314;28;20469;-60
2022/12/12 09:31:11;;;;;;;51.97;28.07;;;-1.30;99.90;;;;;;5081052;28;20468;-61
2022/12/12 09:33:39;;;;;;;51.43;26.83;;;-1.40;99.90;;;;;;5080726;28;21030;-60
2022/12/12 09:36:09;;;;;;;47.60;26.50;;;-1.50;99.90;;;;;;5079891;28;20472;-61
2022/12/12 09:38:39;;;;;;;43.10;23.00;;;-1.50;99.90;;;;;;5079432;28;20472;-61
2022/12/12 09:41:13;;;;;;;44.63;24.97;;;-1.20;99.90;;;;;;5085858;28;20472;-61
2022/12/12 09:43:50;;;;;;;43.57;24.17;;;-1.10;99.90;;;;;;5075067;28;20476;-61
2022/12/12 09:46:29;;;;;;;46.23;26.37;;;-0.70;99.90;;;;;;5068782;28;21020;-58
2022/12/12 09:49:11;;;;;;;52.90;27.17;;;-0.70;99.90;;;;;;5077531;28;20816;-61
2022/12/12 09:51:40;;;;;;;44.10;23.17;;;-0.70;99.90;;;;;;5079708;28;20484;-60
2022/12/12 09:54:13;;;;;;;49.77;26.83;;;-0.20;99.90;;;;;;5088558;28;20832;-62
2022/12/12 09:56:50;;;;;;;47.63;26.17;;;-0.20;99.90;;;;;;5077985;28;20522;-61
2022/12/12 09:59:25;;;;;;;44.70;24.83;;;-0.10;99.90;;;;;;5081297;28;20473;-61
2022/12/12 10:02:02;;;;;;;43.60;24.63;;;-0.30;99.90;;;;;;5077148;28;20477;-61
2022/12/12 10:04:38;;;;;;;45.40;24.27;;;-0.40;99.90;;;;;;5074724;28;21007;-61
2022/12/12 10:07:13;;;;;;;39.50;22.33;;;-0.50;99.90;;;;;;5076816;28;20901;-61
2022/12/12 10:09:57;;;;;;;40.67;21.50;;;-0.40;99.90;;;;;;5083604;28;20995;-61
2022/12/12 10:12:25;;;;;;;44.47;23.83;;;-0.10;99.90;;;;;;5079223;28;21683;-61
2022/12/12 10:14:58;;;;;;;43.17;23.17;;;0.10;99.90;;;;;;5073643;28;20473;-61
2022/12/12 10:17:29;;;;;;;41.83;23.20;;;0.10;99.90;;;;;;5078638;28;20468;-61
2022/12/12 10:20:03;;;;;;;42.40;22.83;;;0.10;99.90;;;;;;5078823;28;21011;-62
2022/12/12 10:22:37;;;;;;;40.80;22.80;;;0.40;99.90;;;;;;5079257;28;20468;-62
2022/12/12 10:25:20;;;;;;;44.37;23.83;;;0.70;99.90;;;;;;5079458;28;20476;-61
2022/12/12 10:27:51;;;;;;;46.40;23.47;;;0.60;99.90;;;;;;5076677;28;20464;-62
2022/12/12 10:30:21;;;;;;;47.73;24.10;;;0.60;99.90;;;;;;5083217;28;20472;-62
2022/12/12 10:33:04;;;;;;;45.13;24.30;;;0.60;99.90;;;;;;5079884;28;20862;-62
2022/12/12 10:35:42;;;;;;;45.13;24.30;;;0.60;99.90;;;;;;5074942;28;20472;-60
2022/12/12 10:38:32;;;;;;;47.63;25.77;;;0.70;99.90;;;;;;5067818;28;20472;-62
2022/12/12 10:41:10;;;;;;;45.70;24.03;;;0.90;99.90;;;;;;5082031;28;20468;-63
2022/12/12 10:43:42;;;;;;;48.23;24.67;;;1.00;99.90;;;;;;5077533;28;20492;-63
2022/12/12 10:46:20;;;;;;;49.33;25.27;;;1.00;99.90;;;;;;5079720;28;20541;-62
2022/12/12 10:48:49;;;;;;;42.23;23.43;;;1.00;99.90;;;;;;5077945;28;20815;-62
2022/12/12 10:51:21;;;;;;;43.43;24.93;;;1.20;99.90;;;;;;5084905;28;20530;-60
2022/12/12 10:53:49;;;;;;;47.73;25.60;;;1.30;99.90;;;;;;5082929;28;20535;-62
2022/12/12 10:56:22;;;;;;;51.17;26.37;;;1.40;99.90;;;;;;5074452;28;20518;-62
2022/12/12 10:58:56;;;;;;;47.27;26.17;;;1.40;99.90;;;;;;5081009;28;20464;-60
2022/12/12 11:01:27;;;;;;;43.03;24.23;;;1.50;99.90;;;;;;5071460;28;20886;-61
2022/12/12 11:04:16;;;;;;;42.93;23.23;;;1.50;99.90;;;;;;5077192;28;20518;-63
2022/12/12 11:06:48;;;;;;;40.53;21.20;;;1.70;99.90;;;;;;5080737;28;20535;-63
2022/12/12 11:09:19;;;;;;;50.73;26.40;;;1.90;99.90;;;;;;5077745;28;20469;-63
2022/12/12 11:12:00;;;;;;;46.87;24.53;;;2.00;99.90;;;;;;5075329;28;20555;-63
2022/12/12 11:14:33;;;;;;;41.30;22.63;;;2.10;99.90;;;;;;5077083;28;20995;-63
2022/12/12 11:17:01;;;;;;;45.33;23.27;;;2.20;99.90;;;;;;5074504;28;20512;-63
2022/12/12 11:19:37;;;;;;;44.80;23.30;;;2.30;99.90;;;;;;5080859;28;20511;-63
2022/12/12 11:22:05;;;;;;;43.63;22.47;;;2.40;99.90;;;;;;5074635;28;20468;-60
2022/12/12 11:24:36;;;;;;;44.00;24.10;;;2.50;99.90;;;;;;5080507;28;20859;-61
2022/12/12 11:27:07;;;;;;;41.77;23.17;;;2.50;99.90;;;;;;5079347;28;20485;-63
2022/12/12 11:29:42;;;;;;;41.63;22.77;;;2.50;99.90;;;;;;5075235;28;20487;-63
2022/12/12 11:32:14;;;;;;;43.67;23.10;;;2.50;99.90;;;;;;5076861;28;20477;-63
2022/12/12 11:34:46;;;;;;;42.30;21.93;;;2.50;99.90;;;;;;5078169;28;20816;-64
2022/12/12 11:37:16;;;;;;;36.43;19.67;;;2.50;99.90;;;;;;5083309;28;20465;-64
2022/12/12 11:39:46;;;;;;;42.83;23.43;;;2.40;99.90;;;;;;5076005;28;20521;-63
2022/12/12 11:42:21;;;;;;;42.83;22.83;;;2.30;99.90;;;;;;5073118;28;21023;-63
2022/12/12 11:44:59;;;;;;;42.17;22.20;;;2.20;99.90;;;;;;5082997;28;20522;-63
2022/12/12 11:47:29;;;;;;;42.13;21.90;;;2.20;99.90;;;;;;5079191;28;20497;-62
2022/12/12 11:49:59;;;;;;;42.37;23.10;;;2.20;99.90;;;;;;5079557;28;20458;-63
2022/12/12 11:52:32;;;;;;;42.00;22.03;;;2.20;99.90;;;;;;5079441;28;20499;-64
2022/12/12 11:55:01;;;;;;;39.07;21.47;;;2.10;99.90;;;;;;5083168;28;20563;-64
2022/12/12 11:57:45;;;;;;;38.93;22.23;;;2.20;99.90;;;;;;5080397;28;20476;-64
2022/12/12 12:00:17;;;;;;;41.43;21.97;;;2.20;99.90;;;;;;5075934;28;20470;-63
2022/12/12 12:03:18;;;;;;;43.83;21.67;;;2.20;99.90;;;;;;5075604;28;20490;-63
2022/12/12 12:06:02;;;;;;;38.80;21.33;;;2.20;99.90;;;;;;5083981;28;20824;-64
2022/12/12 12:08:44;;;;;;;37.87;21.07;;;2.20;99.90;;;;;;5083889;28;20500;-63
2022/12/12 12:11:21;;;;;;;39.17;20.53;;;2.20;99.90;;;;;;5081873;28;20469;-63
2022/12/12 12:14:11;;;;;;;35.20;19.87;;;2.20;99.90;;;;;;5083435;28;20466;-63
2022/12/12 12:16:46;;;;;;;29.23;15.53;;;2.20;99.90;;;;;;5083231;28;20546;-63
2022/12/12 12:19:21;;;;;;;40.10;20.67;;;2.20;99.90;;;;;;5081411;28;20555;-63
2022/12/12 12:22:04;;;;;;;42.00;22.03;;;2.20;99.90;;;;;;5077828;28;20468;-62
2022/12/12 12:24:53;;;;;;;38.07;20.37;;;2.20;99.90;;;;;;5082553;28;20471;-63
2022/12/12 12:27:29;;;;;;;34.23;18.93;;;2.20;99.90;;;;;;5079268;28;20500;-61
2022/12/12 12:30:17;;;;;;;37.80;20.37;;;2.20;99.90;;;;;;5077769;28;20485;-63
2022/12/12 12:33:07;;;;;;;38.00;20.57;;;2.20;99.90;;;;;;5078395;28;20883;-63
2022/12/12 12:35:46;;;;;;;36.67;19.13;;;2.20;99.90;;;;;;5076329;28;20472;-63
2022/12/12 12:38:25;;;;;;;31.03;18.57;;;2.10;99.90;;;;;;5078789;28;20476;-63
2022/12/12 12:41:08;;;;;;;32.33;16.73;;;2.00;99.90;;;;;;5083266;28;20472;-62
2022/12/12 12:43:50;;;;;;;29.97;15.87;;;2.00;99.90;;;;;;5079516;28;20466;-58
2022/12/12 12:46:30;;;;;;;32.03;17.93;;;1.90;99.90;;;;;;5079735;28;20802;-62
2022/12/12 12:49:03;;;;;;;35.20;17.70;;;1.90;99.90;;;;;;5081838;28;20462;-63
2022/12/12 12:51:35;;;;;;;32.60;17.67;;;1.90;99.90;;;;;;5079810;28;20464;-63
2022/12/12 12:54:06;;;;;;;34.43;18.83;;;1.90;99.90;;;;;;5081073;28;20464;-60
2022/12/12 12:56:40;;;;;;;32.57;18.13;;;1.80;99.90;;;;;;5083642;28;20469;-62
2022/12/12 12:59:15;;;;;;;32.53;18.47;;;1.70;99.90;;;;;;5077450;28;20480;-63
2022/12/12 13:01:47;;;;;;;32.40;17.33;;;1.70;99.90;;;;;;5075089;28;20489;-63
2022/12/12 13:04:20;;;;;;;36.50;20.20;;;1.70;99.90;;;;;;5079174;28;21630;-63
2022/12/12 13:06:52;;;;;;;35.77;18.33;;;1.60;99.90;;;;;;5078098;28;20470;-60
2022/12/12 13:09:28;;;;;;;35.80;18.93;;;1.60;99.90;;;;;;5075661;28;20464;-63